sensor_id;sensor_type;location;lat;lon;timestamp;temperature;humidity
22224;DHT22;11281;52.194;21.006;2023-08-01T00:01:41;17.20;99.90
22224;DHT22;11281;52.194;21.006;2023-08-01T00:06:03;17.20;99.90
22224;DHT22;11281;52.194;21.006;2023-08-01T00:10:24;17.20;99.90
22224;DHT22;11281;52.194;21.006;2023-08-01T00:14:46;17.20;99.90
22224;DHT22;11281;52.194;21.006;2023-08-01T00:19:08;17.20;99.90
22224;DHT22;11281;52.194;21.006;2023-08-01T00:23:29;17.20;99.90
22224;DHT22;11281;52.194;21.006;2023-08-01T00:27:51;17.30;99.90
22224;DHT22;11281;52.194;21.006;2023-08-01T00:32:13;17.30;99.90
22224;DHT22;11281;52.194;21.006;2023-08-01T00:36:35;17.30;99.90
22224;DHT22;11281;52.194;21.006;2023-08-01T00:40:56;17.30;99.90
22224;DHT22;11281;52.194;21.006;2023-08-01T00:45:18;17.30;99.90
22224;DHT22;11281;52.194;21.006;2023-08-01T00:49:40;17.30;99.90
22224;DHT22;11281;52.194;21.006;2023-08-01T00:54:02;17.30;99.90
22224;DHT22;11281;52.194;21.006;2023-08-01T00:58:24;17.30;99.90
22224;DHT22;11281;52.194;21.006;2023-08-01T01:02:46;17.30;99.90
22224;DHT22;11281;52.194;21.006;2023-08-01T01:07:08;17.30;99.90
22224;DHT22;11281;52.194;21.006;2023-08-01T01:11:30;17.30;99.90
22224;DHT22;11281;52.194;21.006;2023-08-01T01:15:52;17.30;99.90
22224;DHT22;11281;52.194;21.006;2023-08-01T01:20:14;17.40;99.90
22224;DHT22;11281;52.194;21.006;2023-08-01T01:24:36;17.30;99.90
22224;DHT22;11281;52.194;21.006;2023-08-01T01:28:59;17.30;99.90
22224;DHT22;11281;52.194;21.006;2023-08-01T01:33:22;17.30;99.90
22224;DHT22;11281;52.194;21.006;2023-08-01T01:37:43;17.30;99.90
22224;DHT22;11281;52.194;21.006;2023-08-01T01:42:05;17.30;99.90
22224;DHT22;11281;52.194;21.006;2023-08-01T01:46:27;17.30;99.90
22224;DHT22;11281;52.194;21.006;2023-08-01T01:50:49;17.30;99.90
22224;DHT22;11281;52.194;21.006;2023-08-01T01:55:11;17.30;99.90
22224;DHT22;11281;52.194;21.006;2023-08-01T01:59:32;17.20;99.90
22224;DHT22;11281;52.194;21.006;2023-08-01T02:03:54;17.20;99.90
22224;DHT22;11281;52.194;21.006;2023-08-01T02:08:16;17.10;99.90
22224;DHT22;11281;52.194;21.006;2023-08-01T02:12:37;17.10;99.90
22224;DHT22;11281;52.194;21.006;2023-08-01T02:16:59;17.00;99.90
22224;DHT22;11281;52.194;21.006;2023-08-01T02:21:21;17.00;99.90
22224;DHT22;11281;52.194;21.006;2023-08-01T02:25:43;17.00;99.90
22224;DHT22;11281;52.194;21.006;2023-08-01T02:30:05;17.10;99.90
22224;DHT22;11281;52.194;21.006;2023-08-01T02:34:27;17.00;99.90
22224;DHT22;11281;52.194;21.006;2023-08-01T02:38:49;16.90;99.90
22224;DHT22;11281;52.194;21.006;2023-08-01T02:43:10;16.90;99.90
22224;DHT22;11281;52.194;21.006;2023-08-01T02:47:32;16.80;99.90
22224;DHT22;11281;52.194;21.006;2023-08-01T02:51:54;16.70;99.90
22224;DHT22;11281;52.194;21.006;2023-08-01T02:56:16;16.60;99.90
22224;DHT22;11281;52.194;21.006;2023-08-01T03:00:38;16.40;99.90
22224;DHT22;11281;52.194;21.006;2023-08-01T03:05:01;16.30;99.90
22224;DHT22;11281;52.194;21.006;2023-08-01T03:09:26;16.30;99.90
22224;DHT22;11281;52.194;21.006;2023-08-01T03:13:47;16.30;99.90
22224;DHT22;11281;52.194;21.006;2023-08-01T03:18:09;16.30;99.90
22224;DHT22;11281;52.194;21.006;2023-08-01T03:22:31;16.40;99.90
22224;DHT22;11281;52.194;21.006;2023-08-01T03:26:53;16.50;99.90
22224;DHT22;11281;52.194;21.006;2023-08-01T03:31:14;16.70;99.90
22224;DHT22;11281;52.194;21.006;2023-08-01T03:35:36;16.70;99.90
22224;DHT22;11281;52.194;21.006;2023-08-01T03:39:58;16.80;99.90
22224;DHT22;11281;52.194;21.006;2023-08-01T03:44:19;16.90;99.90
22224;DHT22;11281;52.194;21.006;2023-08-01T03:48:41;17.00;99.90
22224;DHT22;11281;52.194;21.006;2023-08-01T03:53:04;17.00;99.90
22224;DHT22;11281;52.194;21.006;2023-08-01T03:57:26;17.00;99.90
22224;DHT22;11281;52.194;21.006;2023-08-01T04:01:47;17.10;99.90
22224;DHT22;11281;52.194;21.006;2023-08-01T04:06:09;17.20;99.90
22224;DHT22;11281;52.194;21.006;2023-08-01T04:10:32;17.30;99.90
22224;DHT22;11281;52.194;21.006;2023-08-01T04:14:53;17.30;99.90
22224;DHT22;11281;52.194;21.006;2023-08-01T04:19:15;17.40;99.90
22224;DHT22;11281;52.194;21.006;2023-08-01T04:23:37;17.40;99.90
22224;DHT22;11281;52.194;21.006;2023-08-01T04:27:59;17.40;99.90
22224;DHT22;11281;52.194;21.006;2023-08-01T04:32:20;17.50;99.90
22224;DHT22;11281;52.194;21.006;2023-08-01T04:36:42;17.40;99.90
22224;DHT22;11281;52.194;21.006;2023-08-01T04:41:04;17.40;99.90
22224;DHT22;11281;52.194;21.006;2023-08-01T04:45:25;17.50;99.90
22224;DHT22;11281;52.194;21.006;2023-08-01T04:49:47;17.70;99.90
22224;DHT22;11281;52.194;21.006;2023-08-01T04:54:09;17.90;99.90
22224;DHT22;11281;52.194;21.006;2023-08-01T04:58:30;18.00;99.90
22224;DHT22;11281;52.194;21.006;2023-08-01T05:02:52;18.10;99.90
22224;DHT22;11281;52.194;21.006;2023-08-01T05:07:14;18.20;99.90
22224;DHT22;11281;52.194;21.006;2023-08-01T05:11:36;18.60;99.90
22224;DHT22;11281;52.194;21.006;2023-08-01T05:15:57;18.90;99.90
22224;DHT22;11281;52.194;21.006;2023-08-01T05:20:19;19.10;99.90
22224;DHT22;11281;52.194;21.006;2023-08-01T05:24:41;19.40;99.90
22224;DHT22;11281;52.194;21.006;2023-08-01T05:29:02;19.50;99.90
22224;DHT22;11281;52.194;21.006;2023-08-01T05:33:25;19.40;99.90
22224;DHT22;11281;52.194;21.006;2023-08-01T05:37:47;19.30;99.90
22224;DHT22;11281;52.194;21.006;2023-08-01T05:42:08;19.10;99.90
22224;DHT22;11281;52.194;21.006;2023-08-01T05:46:30;19.10;99.90
22224;DHT22;11281;52.194;21.006;2023-08-01T05:50:52;19.10;99.90
22224;DHT22;11281;52.194;21.006;2023-08-01T05:55:16;19.10;99.90
22224;DHT22;11281;52.194;21.006;2023-08-01T05:59:38;19.20;99.90
22224;DHT22;11281;52.194;21.006;2023-08-01T06:04:00;19.20;99.90
22224;DHT22;11281;52.194;21.006;2023-08-01T06:08:21;19.20;99.90
22224;DHT22;11281;52.194;21.006;2023-08-01T06:12:43;19.20;99.90
22224;DHT22;11281;52.194;21.006;2023-08-01T06:17:05;19.30;99.90
22224;DHT22;11281;52.194;21.006;2023-08-01T06:21:27;19.40;99.90
22224;DHT22;11281;52.194;21.006;2023-08-01T06:25:48;19.40;99.90
22224;DHT22;11281;52.194;21.006;2023-08-01T06:30:10;19.50;99.90
22224;DHT22;11281;52.194;21.006;2023-08-01T06:34:32;19.60;99.90
22224;DHT22;11281;52.194;21.006;2023-08-01T06:38:54;20.00;99.90
22224;DHT22;11281;52.194;21.006;2023-08-01T06:43:16;20.40;99.90
22224;DHT22;11281;52.194;21.006;2023-08-01T06:47:37;20.70;99.90
22224;DHT22;11281;52.194;21.006;2023-08-01T06:51:59;21.30;99.90
22224;DHT22;11281;52.194;21.006;2023-08-01T06:56:21;21.60;99.90
22224;DHT22;11281;52.194;21.006;2023-08-01T07:00:44;22.10;99.90
22224;DHT22;11281;52.194;21.006;2023-08-01T07:05:06;22.40;99.90
22224;DHT22;11281;52.194;21.006;2023-08-01T07:09:27;22.30;99.90
22224;DHT22;11281;52.194;21.006;2023-08-01T07:13:49;22.20;99.90
22224;DHT22;11281;52.194;21.006;2023-08-01T07:18:11;22.20;99.90
22224;DHT22;11281;52.194;21.006;2023-08-01T07:22:33;22.20;99.90
22224;DHT22;11281;52.194;21.006;2023-08-01T07:26:54;22.40;99.90
22224;DHT22;11281;52.194;21.006;2023-08-01T07:31:16;22.50;99.90
22224;DHT22;11281;52.194;21.006;2023-08-01T07:35:38;22.50;99.90
22224;DHT22;11281;52.194;21.006;2023-08-01T07:40:00;22.70;99.90
22224;DHT22;11281;52.194;21.006;2023-08-01T07:44:21;22.70;99.90
22224;DHT22;11281;52.194;21.006;2023-08-01T07:48:43;22.70;99.90
22224;DHT22;11281;52.194;21.006;2023-08-01T07:53:05;22.80;99.90
22224;DHT22;11281;52.194;21.006;2023-08-01T07:57:26;22.60;99.90
22224;DHT22;11281;52.194;21.006;2023-08-01T08:01:48;22.70;99.90
22224;DHT22;11281;52.194;21.006;2023-08-01T08:06:10;23.10;99.90
22224;DHT22;11281;52.194;21.006;2023-08-01T08:10:32;23.30;99.90
22224;DHT22;11281;52.194;21.006;2023-08-01T08:14:54;23.20;99.90
22224;DHT22;11281;52.194;21.006;2023-08-01T08:19:15;23.10;99.90
22224;DHT22;11281;52.194;21.006;2023-08-01T08:23:38;23.20;99.90
22224;DHT22;11281;52.194;21.006;2023-08-01T08:27:59;23.20;99.90
22224;DHT22;11281;52.194;21.006;2023-08-01T08:32:21;23.00;99.90
22224;DHT22;11281;52.194;21.006;2023-08-01T08:36:43;22.80;99.90
22224;DHT22;11281;52.194;21.006;2023-08-01T08:41:10;22.90;99.90
22224;DHT22;11281;52.194;21.006;2023-08-01T08:45:35;23.10;99.90
22224;DHT22;11281;52.194;21.006;2023-08-01T08:49:57;23.10;99.90
22224;DHT22;11281;52.194;21.006;2023-08-01T08:54:19;22.80;99.90
22224;DHT22;11281;52.194;21.006;2023-08-01T08:58:42;22.70;99.90
22224;DHT22;11281;52.194;21.006;2023-08-01T09:03:05;22.90;99.90
22224;DHT22;11281;52.194;21.006;2023-08-01T09:07:30;23.00;99.90
22224;DHT22;11281;52.194;21.006;2023-08-01T09:11:54;23.20;99.90
22224;DHT22;11281;52.194;21.006;2023-08-01T09:16:17;23.20;99.90
22224;DHT22;11281;52.194;21.006;2023-08-01T09:20:43;23.00;99.90
22224;DHT22;11281;52.194;21.006;2023-08-01T09:25:07;23.00;99.90
22224;DHT22;11281;52.194;21.006;2023-08-01T09:29:29;23.00;99.90
22224;DHT22;11281;52.194;21.006;2023-08-01T09:33:53;23.10;99.90
22224;DHT22;11281;52.194;21.006;2023-08-01T09:38:16;23.50;99.90
22224;DHT22;11281;52.194;21.006;2023-08-01T09:42:42;23.40;99.90
22224;DHT22;11281;52.194;21.006;2023-08-01T09:47:05;23.20;99.90
22224;DHT22;11281;52.194;21.006;2023-08-01T09:51:29;23.20;99.90
22224;DHT22;11281;52.194;21.006;2023-08-01T09:55:51;23.60;99.90
22224;DHT22;11281;52.194;21.006;2023-08-01T10:00:15;23.70;99.90
22224;DHT22;11281;52.194;21.006;2023-08-01T10:04:37;23.80;99.90
22224;DHT22;11281;52.194;21.006;2023-08-01T10:09:01;23.70;99.90
22224;DHT22;11281;52.194;21.006;2023-08-01T10:13:24;23.60;99.90
22224;DHT22;11281;52.194;21.006;2023-08-01T10:17:45;23.30;99.90
22224;DHT22;11281;52.194;21.006;2023-08-01T10:22:08;23.00;99.90
22224;DHT22;11281;52.194;21.006;2023-08-01T10:26:31;23.00;99.90
22224;DHT22;11281;52.194;21.006;2023-08-01T10:30:53;22.90;99.90
22224;DHT22;11281;52.194;21.006;2023-08-01T10:35:14;22.50;99.90
22224;DHT22;11281;52.194;21.006;2023-08-01T10:39:36;22.10;99.90
22224;DHT22;11281;52.194;21.006;2023-08-01T10:44:11;22.00;99.90
22224;DHT22;11281;52.194;21.006;2023-08-01T10:48:34;21.50;99.90
22224;DHT22;11281;52.194;21.006;2023-08-01T10:53:05;21.10;99.90
22224;DHT22;11281;52.194;21.006;2023-08-01T10:57:35;20.80;99.90
22224;DHT22;11281;52.194;21.006;2023-08-01T11:01:59;20.70;99.90
22224;DHT22;11281;52.194;21.006;2023-08-01T11:06:21;20.80;99.90
22224;DHT22;11281;52.194;21.006;2023-08-01T11:10:49;21.00;99.90
22224;DHT22;11281;52.194;21.006;2023-08-01T11:15:13;21.10;99.90
22224;DHT22;11281;52.194;21.006;2023-08-01T11:19:35;21.10;99.90
22224;DHT22;11281;52.194;21.006;2023-08-01T11:23:57;21.00;99.90
22224;DHT22;11281;52.194;21.006;2023-08-01T11:28:19;21.10;99.90
22224;DHT22;11281;52.194;21.006;2023-08-01T11:32:40;21.50;99.90
22224;DHT22;11281;52.194;21.006;2023-08-01T11:37:02;22.00;99.90
22224;DHT22;11281;52.194;21.006;2023-08-01T11:41:28;22.10;99.90
22224;DHT22;11281;52.194;21.006;2023-08-01T11:45:55;21.90;99.90
22224;DHT22;11281;52.194;21.006;2023-08-01T11:50:25;22.00;99.90
22224;DHT22;11281;52.194;21.006;2023-08-01T11:54:47;21.80;99.90
22224;DHT22;11281;52.194;21.006;2023-08-01T11:59:14;22.00;99.90
22224;DHT22;11281;52.194;21.006;2023-08-01T12:03:50;22.20;99.90
22224;DHT22;11281;52.194;21.006;2023-08-01T12:08:14;22.40;99.90
22224;DHT22;11281;52.194;21.006;2023-08-01T12:12:44;22.60;99.90
22224;DHT22;11281;52.194;21.006;2023-08-01T12:17:07;22.80;99.90
22224;DHT22;11281;52.194;21.006;2023-08-01T12:21:30;23.00;99.90
22224;DHT22;11281;52.194;21.006;2023-08-01T12:25:53;22.60;99.90
22224;DHT22;11281;52.194;21.006;2023-08-01T12:30:14;22.50;99.90
22224;DHT22;11281;52.194;21.006;2023-08-01T12:34:36;22.30;99.90
22224;DHT22;11281;52.194;21.006;2023-08-01T12:38:58;22.40;99.90
22224;DHT22;11281;52.194;21.006;2023-08-01T12:43:19;22.20;99.90
22224;DHT22;11281;52.194;21.006;2023-08-01T12:47:41;22.30;99.90
22224;DHT22;11281;52.194;21.006;2023-08-01T12:52:03;22.40;99.90
22224;DHT22;11281;52.194;21.006;2023-08-01T12:56:25;22.30;99.90
22224;DHT22;11281;52.194;21.006;2023-08-01T13:00:46;22.20;99.90
22224;DHT22;11281;52.194;21.006;2023-08-01T13:05:08;22.30;99.90
22224;DHT22;11281;52.194;21.006;2023-08-01T13:09:30;22.60;99.90
22224;DHT22;11281;52.194;21.006;2023-08-01T13:13:52;22.60;99.90
22224;DHT22;11281;52.194;21.006;2023-08-01T13:18:14;22.70;99.90
22224;DHT22;11281;52.194;21.006;2023-08-01T13:22:35;22.80;99.90
22224;DHT22;11281;52.194;21.006;2023-08-01T13:26:58;22.90;99.90
22224;DHT22;11281;52.194;21.006;2023-08-01T13:31:20;23.00;99.90
22224;DHT22;11281;52.194;21.006;2023-08-01T13:35:42;22.80;99.90
22224;DHT22;11281;52.194;21.006;2023-08-01T13:40:04;22.80;99.90
22224;DHT22;11281;52.194;21.006;2023-08-01T13:44:26;22.90;99.90
22224;DHT22;11281;52.194;21.006;2023-08-01T13:48:48;22.80;99.90
22224;DHT22;11281;52.194;21.006;2023-08-01T13:53:10;22.70;99.90
22224;DHT22;11281;52.194;21.006;2023-08-01T13:57:35;22.60;99.90
22224;DHT22;11281;52.194;21.006;2023-08-01T14:01:56;22.40;99.90
22224;DHT22;11281;52.194;21.006;2023-08-01T14:06:18;22.30;99.90
22224;DHT22;11281;52.194;21.006;2023-08-01T14:10:40;22.30;99.90
22224;DHT22;11281;52.194;21.006;2023-08-01T14:15:04;22.30;99.90
22224;DHT22;11281;52.194;21.006;2023-08-01T14:19:27;22.30;99.90
22224;DHT22;11281;52.194;21.006;2023-08-01T14:23:51;22.30;99.90
22224;DHT22;11281;52.194;21.006;2023-08-01T14:28:12;22.10;99.90
22224;DHT22;11281;52.194;21.006;2023-08-01T14:32:37;21.80;99.90
22224;DHT22;11281;52.194;21.006;2023-08-01T14:36:59;21.30;99.90
22224;DHT22;11281;52.194;21.006;2023-08-01T14:41:20;21.00;99.90
22224;DHT22;11281;52.194;21.006;2023-08-01T14:45:42;20.70;99.90
22224;DHT22;11281;52.194;21.006;2023-08-01T14:50:04;20.50;99.90
22224;DHT22;11281;52.194;21.006;2023-08-01T14:54:26;20.30;99.90
22224;DHT22;11281;52.194;21.006;2023-08-01T14:58:49;20.30;99.90
22224;DHT22;11281;52.194;21.006;2023-08-01T15:03:10;20.50;99.90
22224;DHT22;11281;52.194;21.006;2023-08-01T15:07:32;20.60;99.90
22224;DHT22;11281;52.194;21.006;2023-08-01T15:11:54;20.80;99.90
22224;DHT22;11281;52.194;21.006;2023-08-01T15:16:16;20.90;99.90
22224;DHT22;11281;52.194;21.006;2023-08-01T15:20:38;21.10;99.90
22224;DHT22;11281;52.194;21.006;2023-08-01T15:25:02;21.30;99.90
22224;DHT22;11281;52.194;21.006;2023-08-01T15:29:24;21.60;99.90
22224;DHT22;11281;52.194;21.006;2023-08-01T15:33:45;21.70;99.90
22224;DHT22;11281;52.194;21.006;2023-08-01T15:38:08;21.60;99.90
22224;DHT22;11281;52.194;21.006;2023-08-01T15:42:30;21.50;99.90
22224;DHT22;11281;52.194;21.006;2023-08-01T15:46:52;21.20;99.90
22224;DHT22;11281;52.194;21.006;2023-08-01T15:51:14;21.00;99.90
22224;DHT22;11281;52.194;21.006;2023-08-01T15:55:35;21.00;99.90
22224;DHT22;11281;52.194;21.006;2023-08-01T15:59:57;21.10;99.90
22224;DHT22;11281;52.194;21.006;2023-08-01T16:04:19;21.00;99.90
22224;DHT22;11281;52.194;21.006;2023-08-01T16:08:41;21.00;99.90
22224;DHT22;11281;52.194;21.006;2023-08-01T16:13:02;21.00;99.90
22224;DHT22;11281;52.194;21.006;2023-08-01T16:17:24;20.90;99.90
22224;DHT22;11281;52.194;21.006;2023-08-01T16:21:46;20.90;99.90
22224;DHT22;11281;52.194;21.006;2023-08-01T16:26:07;20.90;99.90
22224;DHT22;11281;52.194;21.006;2023-08-01T16:30:30;21.10;99.90
22224;DHT22;11281;52.194;21.006;2023-08-01T16:34:52;21.30;99.90
22224;DHT22;11281;52.194;21.006;2023-08-01T16:39:13;21.20;99.90
22224;DHT22;11281;52.194;21.006;2023-08-01T16:43:35;21.40;99.90
22224;DHT22;11281;52.194;21.006;2023-08-01T16:47:57;21.20;99.90
22224;DHT22;11281;52.194;21.006;2023-08-01T16:52:18;21.10;99.90
22224;DHT22;11281;52.194;21.006;2023-08-01T16:56:40;20.90;99.90
22224;DHT22;11281;52.194;21.006;2023-08-01T17:01:02;20.90;99.90
22224;DHT22;11281;52.194;21.006;2023-08-01T17:05:24;20.80;99.90
22224;DHT22;11281;52.194;21.006;2023-08-01T17:09:46;20.80;99.90
22224;DHT22;11281;52.194;21.006;2023-08-01T17:14:07;20.80;99.90
22224;DHT22;11281;52.194;21.006;2023-08-01T17:18:29;20.70;99.90
22224;DHT22;11281;52.194;21.006;2023-08-01T17:22:51;20.60;99.90
22224;DHT22;11281;52.194;21.006;2023-08-01T17:27:13;20.50;99.90
22224;DHT22;11281;52.194;21.006;2023-08-01T17:31:34;20.50;99.90
22224;DHT22;11281;52.194;21.006;2023-08-01T17:35:56;20.30;99.90
22224;DHT22;11281;52.194;21.006;2023-08-01T17:40:18;20.30;99.90
22224;DHT22;11281;52.194;21.006;2023-08-01T17:44:40;20.20;99.90
22224;DHT22;11281;52.194;21.006;2023-08-01T17:49:01;20.20;99.90
22224;DHT22;11281;52.194;21.006;2023-08-01T17:53:23;20.10;99.90
22224;DHT22;11281;52.194;21.006;2023-08-01T17:57:45;20.00;99.90
22224;DHT22;11281;52.194;21.006;2023-08-01T18:02:07;20.00;99.90
22224;DHT22;11281;52.194;21.006;2023-08-01T18:06:29;19.90;99.90
22224;DHT22;11281;52.194;21.006;2023-08-01T18:10:50;19.80;99.90
22224;DHT22;11281;52.194;21.006;2023-08-01T18:15:12;19.80;99.90
22224;DHT22;11281;52.194;21.006;2023-08-01T18:19:34;19.80;99.90
22224;DHT22;11281;52.194;21.006;2023-08-01T18:23:55;19.80;99.90
22224;DHT22;11281;52.194;21.006;2023-08-01T18:28:17;19.70;99.90
22224;DHT22;11281;52.194;21.006;2023-08-01T18:32:39;19.70;99.90
22224;DHT22;11281;52.194;21.006;2023-08-01T18:37:01;19.70;99.90
22224;DHT22;11281;52.194;21.006;2023-08-01T18:41:22;19.60;99.90
22224;DHT22;11281;52.194;21.006;2023-08-01T18:45:52;19.70;99.90
22224;DHT22;11281;52.194;21.006;2023-08-01T18:50:15;19.70;99.90
22224;DHT22;11281;52.194;21.006;2023-08-01T18:54:37;19.60;99.90
22224;DHT22;11281;52.194;21.006;2023-08-01T18:58:58;19.40;99.90
22224;DHT22;11281;52.194;21.006;2023-08-01T19:03:20;19.10;99.90
22224;DHT22;11281;52.194;21.006;2023-08-01T19:07:42;18.80;99.90
22224;DHT22;11281;52.194;21.006;2023-08-01T19:12:05;18.60;99.90
22224;DHT22;11281;52.194;21.006;2023-08-01T19:16:29;18.50;99.90
22224;DHT22;11281;52.194;21.006;2023-08-01T19:20:51;18.50;99.90
22224;DHT22;11281;52.194;21.006;2023-08-01T19:25:13;18.40;99.90
22224;DHT22;11281;52.194;21.006;2023-08-01T19:29:35;18.40;99.90
22224;DHT22;11281;52.194;21.006;2023-08-01T19:33:56;18.20;99.90
22224;DHT22;11281;52.194;21.006;2023-08-01T19:38:20;18.10;99.90
22224;DHT22;11281;52.194;21.006;2023-08-01T19:42:42;18.10;99.90
22224;DHT22;11281;52.194;21.006;2023-08-01T19:47:04;18.10;99.90
22224;DHT22;11281;52.194;21.006;2023-08-01T19:51:26;18.10;99.90
22224;DHT22;11281;52.194;21.006;2023-08-01T19:55:48;18.10;99.90
22224;DHT22;11281;52.194;21.006;2023-08-01T20:00:10;18.00;99.90
22224;DHT22;11281;52.194;21.006;2023-08-01T20:04:32;18.10;99.90
22224;DHT22;11281;52.194;21.006;2023-08-01T20:08:54;18.10;99.90
22224;DHT22;11281;52.194;21.006;2023-08-01T20:13:15;18.10;99.90
22224;DHT22;11281;52.194;21.006;2023-08-01T20:17:37;18.10;99.90
22224;DHT22;11281;52.194;21.006;2023-08-01T20:22:00;18.00;99.90
22224;DHT22;11281;52.194;21.006;2023-08-01T20:26:22;18.00;99.90
22224;DHT22;11281;52.194;21.006;2023-08-01T20:30:44;18.00;99.90
22224;DHT22;11281;52.194;21.006;2023-08-01T20:35:07;18.00;99.90
22224;DHT22;11281;52.194;21.006;2023-08-01T20:39:30;17.90;99.90
22224;DHT22;11281;52.194;21.006;2023-08-01T20:43:52;17.90;99.90
22224;DHT22;11281;52.194;21.006;2023-08-01T20:48:13;17.90;99.90
22224;DHT22;11281;52.194;21.006;2023-08-01T20:52:35;17.90;99.90
22224;DHT22;11281;52.194;21.006;2023-08-01T20:56:57;17.80;99.90
22224;DHT22;11281;52.194;21.006;2023-08-01T21:01:19;17.70;99.90
22224;DHT22;11281;52.194;21.006;2023-08-01T21:05:41;17.70;99.90
22224;DHT22;11281;52.194;21.006;2023-08-01T21:10:04;17.60;99.90
22224;DHT22;11281;52.194;21.006;2023-08-01T21:14:26;17.60;99.90
22224;DHT22;11281;52.194;21.006;2023-08-01T21:18:47;17.50;99.90
22224;DHT22;11281;52.194;21.006;2023-08-01T21:23:09;17.40;99.90
22224;DHT22;11281;52.194;21.006;2023-08-01T21:27:31;17.40;99.90
22224;DHT22;11281;52.194;21.006;2023-08-01T21:31:52;17.40;99.90
22224;DHT22;11281;52.194;21.006;2023-08-01T21:36:14;17.30;99.90
22224;DHT22;11281;52.194;21.006;2023-08-01T21:40:37;17.20;99.90
22224;DHT22;11281;52.194;21.006;2023-08-01T21:44:59;17.10;99.90
22224;DHT22;11281;52.194;21.006;2023-08-01T21:49:22;17.10;99.90
22224;DHT22;11281;52.194;21.006;2023-08-01T21:53:44;17.10;99.90
22224;DHT22;11281;52.194;21.006;2023-08-01T21:58:06;17.00;99.90
22224;DHT22;11281;52.194;21.006;2023-08-01T22:02:28;16.90;99.90
22224;DHT22;11281;52.194;21.006;2023-08-01T22:06:50;16.90;99.90
22224;DHT22;11281;52.194;21.006;2023-08-01T22:11:11;16.90;99.90
22224;DHT22;11281;52.194;21.006;2023-08-01T22:15:34;16.90;99.90
22224;DHT22;11281;52.194;21.006;2023-08-01T22:19:55;16.80;99.90
22224;DHT22;11281;52.194;21.006;2023-08-01T22:24:17;16.90;99.90
22224;DHT22;11281;52.194;21.006;2023-08-01T22:28:39;16.90;99.90
22224;DHT22;11281;52.194;21.006;2023-08-01T22:33:01;16.80;99.90
22224;DHT22;11281;52.194;21.006;2023-08-01T22:37:23;17.00;99.90
22224;DHT22;11281;52.194;21.006;2023-08-01T22:41:45;17.00;99.90
22224;DHT22;11281;52.194;21.006;2023-08-01T22:46:07;17.00;99.90
22224;DHT22;11281;52.194;21.006;2023-08-01T22:50:31;17.00;99.90
22224;DHT22;11281;52.194;21.006;2023-08-01T22:54:53;17.00;99.90
22224;DHT22;11281;52.194;21.006;2023-08-01T22:59:15;17.00;99.90
22224;DHT22;11281;52.194;21.006;2023-08-01T23:03:38;17.00;99.90
22224;DHT22;11281;52.194;21.006;2023-08-01T23:08:00;17.00;99.90
22224;DHT22;11281;52.194;21.006;2023-08-01T23:12:22;17.00;99.90
22224;DHT22;11281;52.194;21.006;2023-08-01T23:16:43;17.00;99.90
22224;DHT22;11281;52.194;21.006;2023-08-01T23:21:05;17.00;99.90
22224;DHT22;11281;52.194;21.006;2023-08-01T23:25:27;17.10;99.90
22224;DHT22;11281;52.194;21.006;2023-08-01T23:29:52;17.10;99.90
22224;DHT22;11281;52.194;21.006;2023-08-01T23:34:14;17.00;99.90
22224;DHT22;11281;52.194;21.006;2023-08-01T23:38:36;17.00;99.90
22224;DHT22;11281;52.194;21.006;2023-08-01T23:42:58;17.00;99.90
22224;DHT22;11281;52.194;21.006;2023-08-01T23:47:19;17.00;99.90
22224;DHT22;11281;52.194;21.006;2023-08-01T23:51:41;17.00;99.90
22224;DHT22;11281;52.194;21.006;2023-08-01T23:56:03;17.00;99.90
